sensor_id;sensor_type;location;lat;lon;timestamp;P1;durP1;ratioP1;P2;durP2;ratioP2
52186;SDS011;38161;53.020;6.598;2022-08-21T00:00:21;6.25;;;2.70;;
52186;SDS011;38161;53.020;6.598;2022-08-21T00:02:53;5.10;;;2.35;;
52186;SDS011;38161;53.020;6.598;2022-08-21T00:05:22;6.30;;;2.67;;
52186;SDS011;38161;53.020;6.598;2022-08-21T00:07:49;4.82;;;2.58;;
52186;SDS011;38161;53.020;6.598;2022-08-21T00:10:16;5.53;;;2.80;;
52186;SDS011;38161;53.020;6.598;2022-08-21T00:12:42;5.90;;;2.83;;
52186;SDS011;38161;53.020;6.598;2022-08-21T00:15:09;6.35;;;2.47;;
52186;SDS011;38161;53.020;6.598;2022-08-21T00:17:36;5.55;;;2.60;;
52186;SDS011;38161;53.020;6.598;2022-08-21T00:20:04;4.13;;;2.55;;
52186;SDS011;38161;53.020;6.598;2022-08-21T00:22:32;8.50;;;3.20;;
52186;SDS011;38161;53.020;6.598;2022-08-21T00:24:57;7.78;;;3.47;;
52186;SDS011;38161;53.020;6.598;2022-08-21T00:27:23;5.05;;;2.70;;
52186;SDS011;38161;53.020;6.598;2022-08-21T00:29:49;5.63;;;2.78;;
52186;SDS011;38161;53.020;6.598;2022-08-21T00:32:19;6.57;;;3.30;;
52186;SDS011;38161;53.020;6.598;2022-08-21T00:34:46;5.40;;;3.10;;
52186;SDS011;38161;53.020;6.598;2022-08-21T00:37:12;6.82;;;3.10;;
52186;SDS011;38161;53.020;6.598;2022-08-21T00:39:37;6.18;;;2.95;;
52186;SDS011;38161;53.020;6.598;2022-08-21T00:42:03;6.60;;;3.30;;
52186;SDS011;38161;53.020;6.598;2022-08-21T00:44:29;7.47;;;3.78;;
52186;SDS011;38161;53.020;6.598;2022-08-21T00:49:22;4.60;;;2.65;;
52186;SDS011;38161;53.020;6.598;2022-08-21T00:51:52;5.63;;;2.97;;
52186;SDS011;38161;53.020;6.598;2022-08-21T00:54:24;7.00;;;3.00;;
52186;SDS011;38161;53.020;6.598;2022-08-21T00:57:03;7.75;;;3.08;;
52186;SDS011;38161;53.020;6.598;2022-08-21T00:59:35;6.22;;;3.20;;
52186;SDS011;38161;53.020;6.598;2022-08-21T01:02:04;4.57;;;3.30;;
52186;SDS011;38161;53.020;6.598;2022-08-21T01:04:30;6.97;;;3.50;;
52186;SDS011;38161;53.020;6.598;2022-08-21T01:06:56;9.88;;;3.30;;
52186;SDS011;38161;53.020;6.598;2022-08-21T01:09:22;6.40;;;3.28;;
52186;SDS011;38161;53.020;6.598;2022-08-21T01:11:47;6.15;;;3.20;;
52186;SDS011;38161;53.020;6.598;2022-08-21T01:14:14;5.32;;;3.47;;
52186;SDS011;38161;53.020;6.598;2022-08-21T01:16:41;5.93;;;3.50;;
52186;SDS011;38161;53.020;6.598;2022-08-21T01:19:10;5.10;;;3.05;;
52186;SDS011;38161;53.020;6.598;2022-08-21T01:21:36;7.38;;;3.47;;
52186;SDS011;38161;53.020;6.598;2022-08-21T01:24:02;9.82;;;4.72;;
52186;SDS011;38161;53.020;6.598;2022-08-21T01:26:29;8.00;;;3.28;;
52186;SDS011;38161;53.020;6.598;2022-08-21T01:29:02;5.25;;;3.17;;
52186;SDS011;38161;53.020;6.598;2022-08-21T01:31:31;6.68;;;3.75;;
52186;SDS011;38161;53.020;6.598;2022-08-21T01:33:58;8.60;;;3.55;;
52186;SDS011;38161;53.020;6.598;2022-08-21T01:36:24;5.35;;;3.22;;
52186;SDS011;38161;53.020;6.598;2022-08-21T01:41:16;6.30;;;2.88;;
52186;SDS011;38161;53.020;6.598;2022-08-21T01:43:42;6.68;;;3.42;;
52186;SDS011;38161;53.020;6.598;2022-08-21T01:46:10;6.32;;;3.67;;
52186;SDS011;38161;53.020;6.598;2022-08-21T01:48:36;6.60;;;3.90;;
52186;SDS011;38161;53.020;6.598;2022-08-21T01:51:03;7.07;;;3.97;;
52186;SDS011;38161;53.020;6.598;2022-08-21T01:53:30;7.70;;;4.15;;
52186;SDS011;38161;53.020;6.598;2022-08-21T01:55:55;5.35;;;3.63;;
52186;SDS011;38161;53.020;6.598;2022-08-21T01:58:21;5.88;;;3.67;;
52186;SDS011;38161;53.020;6.598;2022-08-21T02:00:47;6.10;;;3.70;;
52186;SDS011;38161;53.020;6.598;2022-08-21T02:03:14;6.45;;;4.03;;
52186;SDS011;38161;53.020;6.598;2022-08-21T02:05:40;7.90;;;4.15;;
52186;SDS011;38161;53.020;6.598;2022-08-21T02:08:05;6.95;;;3.58;;
52186;SDS011;38161;53.020;6.598;2022-08-21T02:10:32;8.18;;;4.40;;
52186;SDS011;38161;53.020;6.598;2022-08-21T02:12:58;5.50;;;3.70;;
52186;SDS011;38161;53.020;6.598;2022-08-21T02:15:25;7.15;;;4.03;;
52186;SDS011;38161;53.020;6.598;2022-08-21T02:17:54;5.28;;;3.50;;
52186;SDS011;38161;53.020;6.598;2022-08-21T02:20:25;5.90;;;3.72;;
52186;SDS011;38161;53.020;6.598;2022-08-21T02:22:56;6.55;;;3.83;;
52186;SDS011;38161;53.020;6.598;2022-08-21T02:25:22;6.85;;;4.13;;
52186;SDS011;38161;53.020;6.598;2022-08-21T02:27:50;5.55;;;3.80;;
52186;SDS011;38161;53.020;6.598;2022-08-21T02:30:20;11.82;;;5.90;;
52186;SDS011;38161;53.020;6.598;2022-08-21T02:32:49;9.52;;;4.38;;
52186;SDS011;38161;53.020;6.598;2022-08-21T02:35:15;8.07;;;4.72;;
52186;SDS011;38161;53.020;6.598;2022-08-21T02:37:45;8.35;;;4.75;;
52186;SDS011;38161;53.020;6.598;2022-08-21T02:40:12;6.90;;;4.35;;
52186;SDS011;38161;53.020;6.598;2022-08-21T02:42:39;6.07;;;4.15;;
52186;SDS011;38161;53.020;6.598;2022-08-21T02:45:05;6.55;;;3.83;;
52186;SDS011;38161;53.020;6.598;2022-08-21T02:47:32;7.57;;;4.20;;
52186;SDS011;38161;53.020;6.598;2022-08-21T02:49:58;5.88;;;4.18;;
52186;SDS011;38161;53.020;6.598;2022-08-21T02:52:23;8.02;;;4.65;;
52186;SDS011;38161;53.020;6.598;2022-08-21T02:54:49;8.55;;;5.13;;
52186;SDS011;38161;53.020;6.598;2022-08-21T02:57:15;6.65;;;4.45;;
52186;SDS011;38161;53.020;6.598;2022-08-21T02:59:41;7.53;;;4.95;;
52186;SDS011;38161;53.020;6.598;2022-08-21T03:02:07;7.82;;;4.75;;
52186;SDS011;38161;53.020;6.598;2022-08-21T03:04:32;10.68;;;4.80;;
52186;SDS011;38161;53.020;6.598;2022-08-21T03:06:58;12.18;;;5.03;;
52186;SDS011;38161;53.020;6.598;2022-08-21T03:09:25;7.85;;;4.95;;
52186;SDS011;38161;53.020;6.598;2022-08-21T03:11:51;6.50;;;4.95;;
52186;SDS011;38161;53.020;6.598;2022-08-21T03:14:17;8.32;;;5.38;;
52186;SDS011;38161;53.020;6.598;2022-08-21T03:16:43;8.73;;;5.03;;
52186;SDS011;38161;53.020;6.598;2022-08-21T03:19:09;7.85;;;5.28;;
52186;SDS011;38161;53.020;6.598;2022-08-21T03:21:37;7.95;;;4.95;;
52186;SDS011;38161;53.020;6.598;2022-08-21T03:24:02;9.13;;;5.00;;
52186;SDS011;38161;53.020;6.598;2022-08-21T03:26:29;9.35;;;4.88;;
52186;SDS011;38161;53.020;6.598;2022-08-21T03:28:55;7.97;;;5.13;;
52186;SDS011;38161;53.020;6.598;2022-08-21T03:31:23;9.00;;;5.10;;
52186;SDS011;38161;53.020;6.598;2022-08-21T03:33:48;11.63;;;5.72;;
52186;SDS011;38161;53.020;6.598;2022-08-21T03:36:15;9.25;;;6.13;;
52186;SDS011;38161;53.020;6.598;2022-08-21T03:38:41;9.52;;;5.70;;
52186;SDS011;38161;53.020;6.598;2022-08-21T03:41:08;11.05;;;6.40;;
52186;SDS011;38161;53.020;6.598;2022-08-21T03:43:34;12.02;;;6.72;;
52186;SDS011;38161;53.020;6.598;2022-08-21T03:46:01;8.85;;;5.78;;
52186;SDS011;38161;53.020;6.598;2022-08-21T03:48:28;11.63;;;6.40;;
52186;SDS011;38161;53.020;6.598;2022-08-21T03:50:54;9.43;;;5.50;;
52186;SDS011;38161;53.020;6.598;2022-08-21T03:53:20;11.45;;;6.75;;
52186;SDS011;38161;53.020;6.598;2022-08-21T03:55:47;11.52;;;5.28;;
52186;SDS011;38161;53.020;6.598;2022-08-21T03:58:14;10.68;;;5.88;;
52186;SDS011;38161;53.020;6.598;2022-08-21T04:00:41;9.75;;;6.07;;
52186;SDS011;38161;53.020;6.598;2022-08-21T04:03:07;9.35;;;6.20;;
52186;SDS011;38161;53.020;6.598;2022-08-21T04:05:32;9.52;;;5.75;;
52186;SDS011;38161;53.020;6.598;2022-08-21T04:08:00;8.00;;;5.82;;
52186;SDS011;38161;53.020;6.598;2022-08-21T04:10:28;9.00;;;5.05;;
52186;SDS011;38161;53.020;6.598;2022-08-21T04:12:56;9.32;;;5.80;;
52186;SDS011;38161;53.020;6.598;2022-08-21T04:15:23;7.47;;;5.22;;
52186;SDS011;38161;53.020;6.598;2022-08-21T04:17:49;8.43;;;5.20;;
52186;SDS011;38161;53.020;6.598;2022-08-21T04:20:16;9.88;;;5.50;;
52186;SDS011;38161;53.020;6.598;2022-08-21T04:22:43;7.85;;;5.00;;
52186;SDS011;38161;53.020;6.598;2022-08-21T04:25:10;8.80;;;5.22;;
52186;SDS011;38161;53.020;6.598;2022-08-21T04:27:37;8.27;;;5.45;;
52186;SDS011;38161;53.020;6.598;2022-08-21T04:30:04;7.63;;;5.32;;
52186;SDS011;38161;53.020;6.598;2022-08-21T04:32:30;8.18;;;5.43;;
52186;SDS011;38161;53.020;6.598;2022-08-21T04:34:59;13.55;;;6.22;;
52186;SDS011;38161;53.020;6.598;2022-08-21T04:37:26;9.68;;;5.38;;
52186;SDS011;38161;53.020;6.598;2022-08-21T04:39:52;11.68;;;5.55;;
52186;SDS011;38161;53.020;6.598;2022-08-21T04:42:21;10.40;;;5.70;;
52186;SDS011;38161;53.020;6.598;2022-08-21T04:44:47;8.57;;;5.85;;
52186;SDS011;38161;53.020;6.598;2022-08-21T04:47:14;8.25;;;5.78;;
52186;SDS011;38161;53.020;6.598;2022-08-21T04:49:40;8.52;;;5.80;;
52186;SDS011;38161;53.020;6.598;2022-08-21T04:52:06;11.80;;;6.20;;
52186;SDS011;38161;53.020;6.598;2022-08-21T04:54:31;16.83;;;7.03;;
52186;SDS011;38161;53.020;6.598;2022-08-21T04:57:01;9.23;;;5.43;;
52186;SDS011;38161;53.020;6.598;2022-08-21T04:59:35;9.93;;;6.15;;
52186;SDS011;38161;53.020;6.598;2022-08-21T05:02:05;10.95;;;7.03;;
52186;SDS011;38161;53.020;6.598;2022-08-21T05:04:32;10.98;;;6.53;;
52186;SDS011;38161;53.020;6.598;2022-08-21T05:07:00;10.00;;;6.35;;
52186;SDS011;38161;53.020;6.598;2022-08-21T05:09:28;10.82;;;6.22;;
52186;SDS011;38161;53.020;6.598;2022-08-21T05:11:55;12.35;;;6.20;;
52186;SDS011;38161;53.020;6.598;2022-08-21T05:14:21;11.02;;;6.10;;
52186;SDS011;38161;53.020;6.598;2022-08-21T05:16:47;13.77;;;6.50;;
52186;SDS011;38161;53.020;6.598;2022-08-21T05:19:13;11.38;;;5.93;;
52186;SDS011;38161;53.020;6.598;2022-08-21T05:21:40;10.63;;;6.65;;
52186;SDS011;38161;53.020;6.598;2022-08-21T05:24:08;10.00;;;6.78;;
52186;SDS011;38161;53.020;6.598;2022-08-21T05:26:34;16.13;;;7.28;;
52186;SDS011;38161;53.020;6.598;2022-08-21T05:29:01;10.23;;;6.13;;
52186;SDS011;38161;53.020;6.598;2022-08-21T05:31:28;12.82;;;6.35;;
52186;SDS011;38161;53.020;6.598;2022-08-21T05:33:53;8.82;;;5.95;;
52186;SDS011;38161;53.020;6.598;2022-08-21T05:36:19;12.38;;;6.55;;
52186;SDS011;38161;53.020;6.598;2022-08-21T05:38:45;11.65;;;6.07;;
52186;SDS011;38161;53.020;6.598;2022-08-21T05:41:11;11.43;;;6.00;;
52186;SDS011;38161;53.020;6.598;2022-08-21T05:43:37;14.35;;;6.95;;
52186;SDS011;38161;53.020;6.598;2022-08-21T05:46:03;11.00;;;5.93;;
52186;SDS011;38161;53.020;6.598;2022-08-21T05:48:30;13.80;;;6.70;;
52186;SDS011;38161;53.020;6.598;2022-08-21T05:50:56;11.23;;;6.00;;
52186;SDS011;38161;53.020;6.598;2022-08-21T05:53:23;13.10;;;6.05;;
52186;SDS011;38161;53.020;6.598;2022-08-21T05:55:49;11.77;;;5.60;;
52186;SDS011;38161;53.020;6.598;2022-08-21T05:58:17;10.68;;;5.47;;
52186;SDS011;38161;53.020;6.598;2022-08-21T06:00:45;9.50;;;5.10;;
52186;SDS011;38161;53.020;6.598;2022-08-21T06:03:22;9.57;;;5.53;;
52186;SDS011;38161;53.020;6.598;2022-08-21T06:05:50;12.68;;;5.80;;
52186;SDS011;38161;53.020;6.598;2022-08-21T06:08:17;9.45;;;5.85;;
52186;SDS011;38161;53.020;6.598;2022-08-21T06:10:44;8.45;;;5.07;;
52186;SDS011;38161;53.020;6.598;2022-08-21T06:13:10;11.05;;;5.13;;
52186;SDS011;38161;53.020;6.598;2022-08-21T06:15:38;10.57;;;5.13;;
52186;SDS011;38161;53.020;6.598;2022-08-21T06:18:04;8.57;;;4.85;;
52186;SDS011;38161;53.020;6.598;2022-08-21T06:20:30;10.00;;;5.18;;
52186;SDS011;38161;53.020;6.598;2022-08-21T06:25:22;9.05;;;4.80;;
52186;SDS011;38161;53.020;6.598;2022-08-21T06:27:49;9.82;;;5.15;;
52186;SDS011;38161;53.020;6.598;2022-08-21T06:30:15;8.20;;;4.55;;
52186;SDS011;38161;53.020;6.598;2022-08-21T06:32:41;9.20;;;5.15;;
52186;SDS011;38161;53.020;6.598;2022-08-21T06:35:07;11.70;;;5.32;;
52186;SDS011;38161;53.020;6.598;2022-08-21T06:37:33;7.25;;;4.43;;
52186;SDS011;38161;53.020;6.598;2022-08-21T06:39:59;9.55;;;4.70;;
52186;SDS011;38161;53.020;6.598;2022-08-21T06:42:25;8.73;;;4.10;;
52186;SDS011;38161;53.020;6.598;2022-08-21T06:44:52;9.88;;;5.05;;
52186;SDS011;38161;53.020;6.598;2022-08-21T06:47:18;11.30;;;5.10;;
52186;SDS011;38161;53.020;6.598;2022-08-21T06:49:44;9.57;;;4.78;;
52186;SDS011;38161;53.020;6.598;2022-08-21T06:52:10;11.70;;;4.35;;
52186;SDS011;38161;53.020;6.598;2022-08-21T06:54:37;11.93;;;4.97;;
52186;SDS011;38161;53.020;6.598;2022-08-21T06:57:04;13.25;;;4.68;;
52186;SDS011;38161;53.020;6.598;2022-08-21T06:59:31;13.25;;;4.78;;
52186;SDS011;38161;53.020;6.598;2022-08-21T07:01:57;17.50;;;5.88;;
52186;SDS011;38161;53.020;6.598;2022-08-21T07:04:24;9.35;;;4.35;;
52186;SDS011;38161;53.020;6.598;2022-08-21T07:06:49;11.68;;;3.95;;
52186;SDS011;38161;53.020;6.598;2022-08-21T07:09:15;9.68;;;4.20;;
52186;SDS011;38161;53.020;6.598;2022-08-21T07:11:41;9.05;;;3.70;;
52186;SDS011;38161;53.020;6.598;2022-08-21T07:14:07;9.68;;;4.13;;
52186;SDS011;38161;53.020;6.598;2022-08-21T07:16:33;9.45;;;4.28;;
52186;SDS011;38161;53.020;6.598;2022-08-21T07:18:58;10.25;;;3.78;;
52186;SDS011;38161;53.020;6.598;2022-08-21T07:21:24;6.63;;;3.33;;
52186;SDS011;38161;53.020;6.598;2022-08-21T07:23:50;12.32;;;3.45;;
52186;SDS011;38161;53.020;6.598;2022-08-21T07:26:17;6.88;;;2.72;;
52186;SDS011;38161;53.020;6.598;2022-08-21T07:28:46;8.80;;;2.90;;
52186;SDS011;38161;53.020;6.598;2022-08-21T07:31:15;12.90;;;3.28;;
52186;SDS011;38161;53.020;6.598;2022-08-21T07:33:42;10.20;;;3.13;;
52186;SDS011;38161;53.020;6.598;2022-08-21T07:36:09;6.82;;;3.30;;
52186;SDS011;38161;53.020;6.598;2022-08-21T07:38:35;20.27;;;3.20;;
52186;SDS011;38161;53.020;6.598;2022-08-21T07:41:02;9.80;;;3.00;;
52186;SDS011;38161;53.020;6.598;2022-08-21T07:43:37;11.43;;;3.10;;
52186;SDS011;38161;53.020;6.598;2022-08-21T07:46:03;9.68;;;3.17;;
52186;SDS011;38161;53.020;6.598;2022-08-21T07:48:29;8.23;;;2.72;;
52186;SDS011;38161;53.020;6.598;2022-08-21T07:50:55;7.38;;;3.22;;
52186;SDS011;38161;53.020;6.598;2022-08-21T07:53:21;9.93;;;2.92;;
52186;SDS011;38161;53.020;6.598;2022-08-21T07:55:47;7.93;;;2.75;;
52186;SDS011;38161;53.020;6.598;2022-08-21T08:00:39;8.70;;;2.42;;
52186;SDS011;38161;53.020;6.598;2022-08-21T08:05:31;9.60;;;2.42;;
52186;SDS011;38161;53.020;6.598;2022-08-21T08:07:57;9.98;;;2.90;;
52186;SDS011;38161;53.020;6.598;2022-08-21T08:10:23;8.68;;;3.20;;
52186;SDS011;38161;53.020;6.598;2022-08-21T08:12:50;7.93;;;3.30;;
52186;SDS011;38161;53.020;6.598;2022-08-21T08:15:21;9.88;;;2.72;;
52186;SDS011;38161;53.020;6.598;2022-08-21T08:17:48;7.53;;;3.05;;
52186;SDS011;38161;53.020;6.598;2022-08-21T08:20:15;6.00;;;3.05;;
52186;SDS011;38161;53.020;6.598;2022-08-21T08:22:43;11.98;;;3.15;;
52186;SDS011;38161;53.020;6.598;2022-08-21T08:25:10;8.30;;;3.33;;
52186;SDS011;38161;53.020;6.598;2022-08-21T08:27:37;10.70;;;3.53;;
52186;SDS011;38161;53.020;6.598;2022-08-21T08:30:04;7.53;;;2.97;;
52186;SDS011;38161;53.020;6.598;2022-08-21T08:32:32;8.05;;;3.30;;
52186;SDS011;38161;53.020;6.598;2022-08-21T08:37:24;9.30;;;2.17;;
52186;SDS011;38161;53.020;6.598;2022-08-21T08:39:50;14.13;;;2.85;;
52186;SDS011;38161;53.020;6.598;2022-08-21T08:42:17;10.43;;;2.63;;
52186;SDS011;38161;53.020;6.598;2022-08-21T08:44:58;8.82;;;2.92;;
52186;SDS011;38161;53.020;6.598;2022-08-21T08:47:30;9.57;;;2.85;;
52186;SDS011;38161;53.020;6.598;2022-08-21T08:50:07;10.00;;;2.50;;
52186;SDS011;38161;53.020;6.598;2022-08-21T08:52:58;6.70;;;2.03;;
52186;SDS011;38161;53.020;6.598;2022-08-21T08:55:30;7.90;;;2.20;;
52186;SDS011;38161;53.020;6.598;2022-08-21T08:58:05;11.27;;;2.15;;
52186;SDS011;38161;53.020;6.598;2022-08-21T09:00:32;7.53;;;2.10;;
52186;SDS011;38161;53.020;6.598;2022-08-21T09:02:59;4.53;;;2.00;;
52186;SDS011;38161;53.020;6.598;2022-08-21T09:05:28;6.47;;;2.25;;
52186;SDS011;38161;53.020;6.598;2022-08-21T09:08:26;6.93;;;2.85;;
52186;SDS011;38161;53.020;6.598;2022-08-21T09:11:00;6.47;;;1.80;;
52186;SDS011;38161;53.020;6.598;2022-08-21T09:13:44;6.80;;;2.42;;
52186;SDS011;38161;53.020;6.598;2022-08-21T09:19:36;8.15;;;1.98;;
52186;SDS011;38161;53.020;6.598;2022-08-21T09:22:17;8.38;;;1.95;;
52186;SDS011;38161;53.020;6.598;2022-08-21T09:27:40;7.80;;;2.17;;
52186;SDS011;38161;53.020;6.598;2022-08-21T09:30:07;6.80;;;2.35;;
52186;SDS011;38161;53.020;6.598;2022-08-21T09:32:35;8.95;;;2.38;;
52186;SDS011;38161;53.020;6.598;2022-08-21T09:37:53;8.82;;;1.88;;
52186;SDS011;38161;53.020;6.598;2022-08-21T09:43:15;4.95;;;1.80;;
52186;SDS011;38161;53.020;6.598;2022-08-21T09:45:45;8.00;;;2.00;;
52186;SDS011;38161;53.020;6.598;2022-08-21T09:48:13;6.45;;;2.00;;
52186;SDS011;38161;53.020;6.598;2022-08-21T09:50:42;7.68;;;2.30;;
52186;SDS011;38161;53.020;6.598;2022-08-21T09:53:18;7.10;;;2.65;;
52186;SDS011;38161;53.020;6.598;2022-08-21T09:55:56;5.10;;;1.80;;
52186;SDS011;38161;53.020;6.598;2022-08-21T09:58:43;4.90;;;2.53;;
52186;SDS011;38161;53.020;6.598;2022-08-21T10:01:15;29.15;;;3.40;;
52186;SDS011;38161;53.020;6.598;2022-08-21T10:03:48;5.72;;;1.88;;
52186;SDS011;38161;53.020;6.598;2022-08-21T10:06:27;7.70;;;2.40;;
52186;SDS011;38161;53.020;6.598;2022-08-21T10:09:10;7.72;;;1.95;;
52186;SDS011;38161;53.020;6.598;2022-08-21T10:11:37;5.60;;;1.90;;
52186;SDS011;38161;53.020;6.598;2022-08-21T10:14:11;16.05;;;3.53;;
52186;SDS011;38161;53.020;6.598;2022-08-21T10:20:07;7.50;;;2.20;;
52186;SDS011;38161;53.020;6.598;2022-08-21T10:22:46;5.15;;;2.03;;
52186;SDS011;38161;53.020;6.598;2022-08-21T10:28:10;7.57;;;2.38;;
52186;SDS011;38161;53.020;6.598;2022-08-21T10:33:32;4.75;;;1.80;;
52186;SDS011;38161;53.020;6.598;2022-08-21T10:36:14;6.80;;;2.08;;
52186;SDS011;38161;53.020;6.598;2022-08-21T10:42:04;8.82;;;2.45;;
52186;SDS011;38161;53.020;6.598;2022-08-21T10:47:44;7.13;;;2.35;;
52186;SDS011;38161;53.020;6.598;2022-08-21T10:50:19;7.75;;;1.95;;
52186;SDS011;38161;53.020;6.598;2022-08-21T10:56:36;7.60;;;2.40;;
52186;SDS011;38161;53.020;6.598;2022-08-21T11:01:28;6.03;;;1.95;;
52186;SDS011;38161;53.020;6.598;2022-08-21T11:04:13;6.65;;;1.95;;
52186;SDS011;38161;53.020;6.598;2022-08-21T11:07:28;7.13;;;1.70;;
52186;SDS011;38161;53.020;6.598;2022-08-21T11:09:46;5.55;;;1.90;;
52186;SDS011;38161;53.020;6.598;2022-08-21T11:14:56;6.70;;;1.90;;
52186;SDS011;38161;53.020;6.598;2022-08-21T11:17:45;6.30;;;1.83;;
52186;SDS011;38161;53.020;6.598;2022-08-21T11:20:33;5.85;;;1.95;;
52186;SDS011;38161;53.020;6.598;2022-08-21T11:23:25;7.75;;;2.55;;
52186;SDS011;38161;53.020;6.598;2022-08-21T11:26:02;5.38;;;1.92;;
52186;SDS011;38161;53.020;6.598;2022-08-21T11:28:36;8.95;;;2.25;;
52186;SDS011;38161;53.020;6.598;2022-08-21T11:36:44;5.72;;;1.90;;
52186;SDS011;38161;53.020;6.598;2022-08-21T11:42:14;5.97;;;2.15;;
52186;SDS011;38161;53.020;6.598;2022-08-21T11:50:06;6.00;;;1.85;;
52186;SDS011;38161;53.020;6.598;2022-08-21T11:52:44;7.45;;;2.50;;
52186;SDS011;38161;53.020;6.598;2022-08-21T11:58:29;6.25;;;2.30;;
52186;SDS011;38161;53.020;6.598;2022-08-21T12:01:09;4.80;;;1.67;;
52186;SDS011;38161;53.020;6.598;2022-08-21T12:03:42;7.28;;;2.08;;
52186;SDS011;38161;53.020;6.598;2022-08-21T12:06:27;7.32;;;2.47;;
52186;SDS011;38161;53.020;6.598;2022-08-21T12:08:57;7.32;;;2.42;;
52186;SDS011;38161;53.020;6.598;2022-08-21T12:11:25;6.60;;;2.17;;
52186;SDS011;38161;53.020;6.598;2022-08-21T12:16:33;8.10;;;2.10;;
52186;SDS011;38161;53.020;6.598;2022-08-21T12:19:08;7.50;;;2.45;;
52186;SDS011;38161;53.020;6.598;2022-08-21T12:22:21;8.55;;;2.10;;
52186;SDS011;38161;53.020;6.598;2022-08-21T12:27:19;8.27;;;2.05;;
52186;SDS011;38161;53.020;6.598;2022-08-21T12:29:52;5.95;;;1.85;;
52186;SDS011;38161;53.020;6.598;2022-08-21T12:32:42;7.10;;;2.30;;
52186;SDS011;38161;53.020;6.598;2022-08-21T12:35:17;4.30;;;1.90;;
52186;SDS011;38161;53.020;6.598;2022-08-21T12:37:47;7.38;;;2.50;;
52186;SDS011;38161;53.020;6.598;2022-08-21T12:42:49;8.15;;;2.47;;
52186;SDS011;38161;53.020;6.598;2022-08-21T12:47:47;8.35;;;2.35;;
52186;SDS011;38161;53.020;6.598;2022-08-21T12:50:29;6.38;;;2.58;;
52186;SDS011;38161;53.020;6.598;2022-08-21T12:53:04;5.43;;;2.42;;
52186;SDS011;38161;53.020;6.598;2022-08-21T12:55:35;7.88;;;2.38;;
52186;SDS011;38161;53.020;6.598;2022-08-21T12:58:06;7.28;;;2.70;;
52186;SDS011;38161;53.020;6.598;2022-08-21T13:00:44;6.35;;;2.20;;
52186;SDS011;38161;53.020;6.598;2022-08-21T13:03:14;7.50;;;2.30;;
52186;SDS011;38161;53.020;6.598;2022-08-21T13:05:40;5.25;;;2.08;;
52186;SDS011;38161;53.020;6.598;2022-08-21T13:08:07;7.55;;;2.58;;
52186;SDS011;38161;53.020;6.598;2022-08-21T13:10:36;7.18;;;2.65;;
52186;SDS011;38161;53.020;6.598;2022-08-21T13:13:05;6.70;;;2.70;;
52186;SDS011;38161;53.020;6.598;2022-08-21T13:15:35;7.93;;;2.45;;
52186;SDS011;38161;53.020;6.598;2022-08-21T13:18:04;6.00;;;2.30;;
52186;SDS011;38161;53.020;6.598;2022-08-21T13:20:35;6.80;;;2.13;;
52186;SDS011;38161;53.020;6.598;2022-08-21T13:23:06;4.03;;;2.22;;
52186;SDS011;38161;53.020;6.598;2022-08-21T13:25:52;8.30;;;2.50;;
52186;SDS011;38161;53.020;6.598;2022-08-21T13:28:18;6.20;;;2.35;;
52186;SDS011;38161;53.020;6.598;2022-08-21T13:30:49;6.75;;;2.38;;
52186;SDS011;38161;53.020;6.598;2022-08-21T13:33:17;7.28;;;3.38;;
52186;SDS011;38161;53.020;6.598;2022-08-21T13:38:31;7.05;;;2.38;;
52186;SDS011;38161;53.020;6.598;2022-08-21T13:43:43;7.82;;;2.30;;
52186;SDS011;38161;53.020;6.598;2022-08-21T13:46:12;5.03;;;2.08;;
52186;SDS011;38161;53.020;6.598;2022-08-21T13:48:40;5.57;;;1.95;;
52186;SDS011;38161;53.020;6.598;2022-08-21T13:51:07;4.35;;;2.40;;
52186;SDS011;38161;53.020;6.598;2022-08-21T13:53:47;6.35;;;1.92;;
52186;SDS011;38161;53.020;6.598;2022-08-21T13:56:21;5.90;;;2.40;;
52186;SDS011;38161;53.020;6.598;2022-08-21T13:58:50;5.30;;;2.40;;
52186;SDS011;38161;53.020;6.598;2022-08-21T14:01:36;5.90;;;2.30;;
52186;SDS011;38161;53.020;6.598;2022-08-21T14:04:26;5.07;;;1.90;;
52186;SDS011;38161;53.020;6.598;2022-08-21T14:07:13;7.93;;;2.13;;
52186;SDS011;38161;53.020;6.598;2022-08-21T14:09:43;6.13;;;2.20;;
52186;SDS011;38161;53.020;6.598;2022-08-21T14:12:29;5.13;;;2.10;;
52186;SDS011;38161;53.020;6.598;2022-08-21T14:15:03;4.28;;;1.80;;
52186;SDS011;38161;53.020;6.598;2022-08-21T14:17:38;7.28;;;2.08;;
52186;SDS011;38161;53.020;6.598;2022-08-21T14:20:06;6.72;;;1.92;;
52186;SDS011;38161;53.020;6.598;2022-08-21T14:27:52;4.18;;;2.03;;
52186;SDS011;38161;53.020;6.598;2022-08-21T14:30:34;3.63;;;1.60;;
52186;SDS011;38161;53.020;6.598;2022-08-21T14:33:08;5.18;;;1.83;;
52186;SDS011;38161;53.020;6.598;2022-08-21T14:35:49;5.97;;;2.10;;
52186;SDS011;38161;53.020;6.598;2022-08-21T14:38:18;4.90;;;1.73;;
52186;SDS011;38161;53.020;6.598;2022-08-21T14:40:47;5.72;;;2.50;;
52186;SDS011;38161;53.020;6.598;2022-08-21T14:43:15;6.55;;;2.15;;
52186;SDS011;38161;53.020;6.598;2022-08-21T14:45:41;4.95;;;2.20;;
52186;SDS011;38161;53.020;6.598;2022-08-21T14:48:09;5.13;;;2.15;;
52186;SDS011;38161;53.020;6.598;2022-08-21T14:50:35;7.20;;;2.50;;
52186;SDS011;38161;53.020;6.598;2022-08-21T14:53:01;3.95;;;1.80;;
52186;SDS011;38161;53.020;6.598;2022-08-21T14:55:29;4.78;;;1.80;;
52186;SDS011;38161;53.020;6.598;2022-08-21T14:58:15;6.97;;;2.15;;
52186;SDS011;38161;53.020;6.598;2022-08-21T15:00:41;4.20;;;1.90;;
52186;SDS011;38161;53.020;6.598;2022-08-21T15:03:07;5.95;;;1.88;;
52186;SDS011;38161;53.020;6.598;2022-08-21T15:05:33;4.40;;;1.85;;
52186;SDS011;38161;53.020;6.598;2022-08-21T15:07:58;4.72;;;2.28;;
52186;SDS011;38161;53.020;6.598;2022-08-21T15:10:24;5.30;;;1.98;;
52186;SDS011;38161;53.020;6.598;2022-08-21T15:12:50;6.07;;;1.70;;
52186;SDS011;38161;53.020;6.598;2022-08-21T15:15:16;5.22;;;1.70;;
52186;SDS011;38161;53.020;6.598;2022-08-21T15:17:41;5.07;;;2.00;;
52186;SDS011;38161;53.020;6.598;2022-08-21T15:20:07;4.13;;;1.83;;
52186;SDS011;38161;53.020;6.598;2022-08-21T15:22:34;4.25;;;1.80;;
52186;SDS011;38161;53.020;6.598;2022-08-21T15:25:00;3.75;;;1.70;;
52186;SDS011;38161;53.020;6.598;2022-08-21T15:27:29;6.40;;;1.85;;
52186;SDS011;38161;53.020;6.598;2022-08-21T15:29:55;5.68;;;1.90;;
52186;SDS011;38161;53.020;6.598;2022-08-21T15:34:51;5.70;;;2.20;;
52186;SDS011;38161;53.020;6.598;2022-08-21T15:37:18;6.05;;;2.15;;
52186;SDS011;38161;53.020;6.598;2022-08-21T15:39:45;4.72;;;2.33;;
52186;SDS011;38161;53.020;6.598;2022-08-21T15:42:10;5.05;;;2.10;;
52186;SDS011;38161;53.020;6.598;2022-08-21T15:44:40;5.97;;;2.25;;
52186;SDS011;38161;53.020;6.598;2022-08-21T15:47:12;5.32;;;1.95;;
52186;SDS011;38161;53.020;6.598;2022-08-21T15:49:40;3.25;;;1.60;;
52186;SDS011;38161;53.020;6.598;2022-08-21T15:52:10;5.05;;;2.15;;
52186;SDS011;38161;53.020;6.598;2022-08-21T15:54:36;4.72;;;1.80;;
52186;SDS011;38161;53.020;6.598;2022-08-21T15:57:02;5.30;;;1.63;;
52186;SDS011;38161;53.020;6.598;2022-08-21T16:01:57;7.30;;;2.35;;
52186;SDS011;38161;53.020;6.598;2022-08-21T16:04:26;5.05;;;1.80;;
52186;SDS011;38161;53.020;6.598;2022-08-21T16:06:53;4.00;;;1.73;;
52186;SDS011;38161;53.020;6.598;2022-08-21T16:09:19;5.18;;;2.00;;
52186;SDS011;38161;53.020;6.598;2022-08-21T16:11:46;5.30;;;1.70;;
52186;SDS011;38161;53.020;6.598;2022-08-21T16:14:12;4.57;;;1.83;;
52186;SDS011;38161;53.020;6.598;2022-08-21T16:16:40;4.55;;;1.83;;
52186;SDS011;38161;53.020;6.598;2022-08-21T16:21:33;3.42;;;1.33;;
52186;SDS011;38161;53.020;6.598;2022-08-21T16:24:00;5.22;;;1.85;;
52186;SDS011;38161;53.020;6.598;2022-08-21T16:26:26;5.95;;;2.00;;
52186;SDS011;38161;53.020;6.598;2022-08-21T16:28:53;4.05;;;1.45;;
52186;SDS011;38161;53.020;6.598;2022-08-21T16:31:22;5.75;;;2.63;;
52186;SDS011;38161;53.020;6.598;2022-08-21T16:33:49;5.68;;;1.83;;